Main page
Satellite images Climate Cyclones Lightning AirportsFAQ Languages Contact Newsletter About
Weather : Europe Africa North America South America Asia Australia-Oceania Others

, Phrae, Phrae Airport

48330

latitude: , longitude: Thailand, elevation: 18-10N m


METAR: VTCP 101000Z 20005KT 120V230 9999 FEW020TCU 32/25 Q1003 NOSIG